Time;durP1;ratioP1;P1;durP2;ratioP2;P2;SDS_P1;SDS_P2;PMS_P1;PMS_P2;Temp;Humidity;BMP_temperature;BMP_pressure;BME280_temperature;BME280_humidity;BME280_pressure;Samples;Min_cycle;Max_cycle;Signal;HPM_P1;HPM_P2
2022/04/08 00:00:13;;;;;;;5.00;1.27;;;10.20;59.60;;;;;;5018905;28;20876;-71
2022/04/08 00:02:43;;;;;;;6.33;1.30;;;10.10;59.70;;;;;;5013829;28;20636;-71
2022/04/08 00:05:13;;;;;;;11.17;1.77;;;10.10;59.80;;;;;;5017657;28;21007;-71
2022/04/08 00:07:41;;;;;;;10.50;1.90;;;10.10;59.90;;;;;;5030462;28;20468;-72
2022/04/08 00:10:10;;;;;;;6.43;1.47;;;10.10;59.90;;;;;;5017405;28;20500;-71
2022/04/08 00:12:38;;;;;;;9.03;1.93;;;10.10;60.10;;;;;;5014383;28;20461;-70
2022/04/08 00:15:08;;;;;;;8.40;1.60;;;10.10;60.00;;;;;;5024050;28;20516;-70
2022/04/08 00:17:36;;;;;;;9.97;2.07;;;10.10;60.10;;;;;;5017132;28;20465;-70
2022/04/08 00:20:05;;;;;;;15.40;2.40;;;10.10;60.20;;;;;;5018940;28;20502;-70
2022/04/08 00:22:40;;;;;;;12.63;2.30;;;10.10;60.20;;;;;;5019374;28;20825;-70
2022/04/08 00:25:09;;;;;;;10.03;2.83;;;10.00;60.30;;;;;;5021116;28;20474;-71
2022/04/08 00:27:38;;;;;;;15.37;2.30;;;10.00;60.30;;;;;;5014355;28;20464;-70
2022/04/08 00:30:07;;;;;;;9.93;1.97;;;10.00;60.30;;;;;;5014718;28;20497;-71
2022/04/08 00:32:35;;;;;;;8.30;1.50;;;10.00;60.40;;;;;;5015031;28;20838;-71
2022/04/08 00:35:03;;;;;;;11.00;2.90;;;10.00;60.50;;;;;;5012307;28;20456;-71
2022/04/08 00:37:31;;;;;;;8.20;1.90;;;10.00;60.50;;;;;;5007651;28;20472;-71
2022/04/08 00:40:00;;;;;;;10.73;2.20;;;10.00;60.50;;;;;;5014146;28;21235;-71
2022/04/08 00:42:28;;;;;;;12.43;2.00;;;9.90;60.30;;;;;;5012156;28;20483;-71
2022/04/08 00:44:58;;;;;;;11.57;1.90;;;9.90;60.50;;;;;;5017539;28;20818;-70
2022/04/08 00:47:26;;;;;;;6.53;1.87;;;10.00;60.60;;;;;;5017198;28;20495;-70
2022/04/08 00:49:55;;;;;;;6.90;1.40;;;9.90;60.70;;;;;;5014657;28;21029;-70
2022/04/08 00:52:23;;;;;;;12.03;2.97;;;9.90;60.60;;;;;;5016369;28;20465;-72
2022/04/08 00:54:52;;;;;;;9.80;1.70;;;9.90;60.50;;;;;;5018883;28;20463;-70
2022/04/08 00:57:21;;;;;;;7.77;1.77;;;9.80;60.50;;;;;;5014460;28;20499;-70
2022/04/08 00:59:49;;;;;;;12.63;1.90;;;9.90;60.60;;;;;;5013422;28;20468;-71
2022/04/08 01:02:17;;;;;;;16.23;1.93;;;9.80;60.40;;;;;;5013068;28;20486;-71
2022/04/08 01:04:45;;;;;;;10.03;2.33;;;9.80;60.30;;;;;;5015703;28;20488;-70
2022/04/08 01:07:14;;;;;;;5.97;1.47;;;9.80;60.40;;;;;;5017114;28;20491;-70
2022/04/08 01:09:42;;;;;;;9.57;1.87;;;9.80;60.60;;;;;;5016116;28;20996;-70
2022/04/08 01:12:11;;;;;;;9.20;1.80;;;9.80;60.40;;;;;;5016788;28;20456;-70
2022/04/08 01:14:40;;;;;;;7.40;2.10;;;9.80;60.60;;;;;;5018689;28;20448;-71
2022/04/08 01:17:08;;;;;;;8.10;2.37;;;9.80;60.50;;;;;;5015208;28;20486;-70
2022/04/08 01:19:36;;;;;;;7.70;1.70;;;9.80;60.60;;;;;;5013550;28;20474;-70
2022/04/08 01:22:05;;;;;;;7.77;2.47;;;9.70;60.50;;;;;;5018956;28;20452;-70
2022/04/08 01:24:36;;;;;;;9.10;1.60;;;9.70;60.60;;;;;;5018854;28;20517;-70
2022/04/08 01:27:05;;;;;;;15.80;2.33;;;9.70;60.50;;;;;;5020346;28;20460;-71
2022/04/08 01:29:33;;;;;;;8.20;1.63;;;9.70;60.80;;;;;;5019024;28;21111;-70
2022/04/08 01:32:02;;;;;;;15.93;1.80;;;9.70;60.70;;;;;;5020818;28;20494;-70
2022/04/08 01:34:30;;;;;;;8.77;1.90;;;9.70;60.80;;;;;;5015855;28;20485;-70
2022/04/08 01:36:58;;;;;;;15.00;1.90;;;9.70;60.70;;;;;;5019625;28;20474;-71
2022/04/08 01:39:26;;;;;;;8.17;1.60;;;9.70;60.80;;;;;;5022152;28;20550;-70
2022/04/08 01:41:54;;;;;;;13.37;2.63;;;9.70;60.90;;;;;;5020722;28;20463;-70
2022/04/08 01:44:23;;;;;;;10.33;1.60;;;9.70;61.00;;;;;;5020880;28;20582;-70
2022/04/08 01:46:51;;;;;;;10.13;2.17;;;9.70;61.00;;;;;;5022211;28;20483;-70
2022/04/08 01:49:19;;;;;;;8.40;2.20;;;9.70;61.10;;;;;;5016809;28;20499;-70
2022/04/08 01:51:47;;;;;;;11.77;2.00;;;9.70;61.20;;;;;;5016863;28;20452;-70
2022/04/08 01:54:15;;;;;;;10.17;2.00;;;9.60;61.30;;;;;;5020673;28;20467;-71
2022/04/08 01:56:43;;;;;;;12.27;1.90;;;9.60;61.40;;;;;;5020402;28;20486;-71
2022/04/08 01:59:11;;;;;;;10.37;2.40;;;9.60;61.50;;;;;;5016991;28;20478;-71
2022/04/08 02:01:41;;;;;;;7.40;1.50;;;9.60;61.50;;;;;;5021005;28;20469;-71
2022/04/08 02:04:09;;;;;;;11.80;2.03;;;9.50;61.80;;;;;;5021804;28;20516;-71
2022/04/08 02:06:40;;;;;;;13.13;1.80;;;9.50;61.70;;;;;;5033041;28;20903;-71
2022/04/08 02:09:09;;;;;;;9.67;2.10;;;9.60;61.90;;;;;;5019190;28;20494;-71
2022/04/08 02:11:37;;;;;;;9.60;2.20;;;9.50;62.00;;;;;;5019160;28;21006;-70
2022/04/08 02:14:06;;;;;;;9.30;2.17;;;9.50;61.90;;;;;;5020555;28;20504;-70
2022/04/08 02:16:34;;;;;;;8.47;1.70;;;9.60;62.00;;;;;;5021799;28;20829;-71
2022/04/08 02:19:03;;;;;;;12.90;1.80;;;9.50;62.20;;;;;;5023583;28;20851;-71
2022/04/08 02:21:33;;;;;;;9.47;2.00;;;9.50;62.10;;;;;;5017525;28;20455;-71
2022/04/08 02:24:03;;;;;;;12.17;2.20;;;9.50;62.20;;;;;;5034106;28;20471;-71
2022/04/08 02:26:31;;;;;;;9.70;2.50;;;9.50;62.20;;;;;;5017101;28;20480;-71
2022/04/08 02:28:59;;;;;;;12.37;2.37;;;9.50;62.30;;;;;;5019351;28;20476;-71
2022/04/08 02:31:28;;;;;;;10.30;2.10;;;9.50;62.30;;;;;;5016828;28;20474;-71
2022/04/08 02:33:56;;;;;;;7.77;2.20;;;9.50;62.40;;;;;;5017880;28;20843;-71
2022/04/08 02:36:25;;;;;;;8.40;2.00;;;9.50;62.40;;;;;;5017715;28;20463;-71
2022/04/08 02:38:53;;;;;;;8.40;1.73;;;9.50;62.60;;;;;;5016376;28;20498;-71
2022/04/08 02:41:21;;;;;;;10.17;1.90;;;9.50;62.50;;;;;;5015766;28;20456;-70
2022/04/08 02:43:49;;;;;;;12.13;2.90;;;9.50;62.60;;;;;;5014332;28;20448;-71
2022/04/08 02:46:17;;;;;;;10.13;1.90;;;9.50;62.60;;;;;;5014685;28;20473;-72
2022/04/08 02:48:45;;;;;;;8.37;1.80;;;9.50;62.70;;;;;;5028984;28;20485;-71
2022/04/08 02:51:13;;;;;;;11.10;2.47;;;9.50;62.70;;;;;;5014053;28;20480;-71
2022/04/08 02:53:43;;;;;;;11.30;2.97;;;9.50;62.80;;;;;;5014374;28;20456;-71
2022/04/08 02:56:11;;;;;;;9.37;2.03;;;9.40;62.90;;;;;;5013806;28;20472;-71
2022/04/08 02:58:39;;;;;;;13.50;1.87;;;9.40;62.90;;;;;;5014400;28;20480;-71
2022/04/08 03:01:07;;;;;;;8.57;2.00;;;9.40;63.10;;;;;;5011532;28;21776;-71
2022/04/08 03:03:35;;;;;;;15.97;2.10;;;9.40;63.10;;;;;;5017001;28;20468;-70
2022/04/08 03:06:03;;;;;;;10.83;2.17;;;9.30;63.40;;;;;;5017431;28;20469;-70
2022/04/08 03:08:31;;;;;;;12.80;2.57;;;9.30;63.40;;;;;;5013191;28;20463;-70
2022/04/08 03:11:00;;;;;;;9.27;1.93;;;9.30;63.40;;;;;;5013184;28;20553;-70
2022/04/08 03:13:28;;;;;;;13.27;2.10;;;9.30;63.60;;;;;;5014589;28;20463;-70
2022/04/08 03:15:56;;;;;;;7.40;1.83;;;9.30;63.50;;;;;;5015119;28;20476;-70
2022/04/08 03:18:24;;;;;;;10.80;2.70;;;9.40;63.60;;;;;;5013560;28;20459;-70
2022/04/08 03:20:52;;;;;;;6.97;1.97;;;9.30;63.80;;;;;;5017793;28;20436;-70
2022/04/08 03:23:20;;;;;;;18.20;2.97;;;9.30;63.80;;;;;;5018070;28;20447;-70
2022/04/08 03:25:48;;;;;;;7.43;2.40;;;9.30;63.90;;;;;;5018621;28;21179;-70
2022/04/08 03:28:17;;;;;;;8.50;1.97;;;9.30;63.80;;;;;;5019771;28;20451;-70
2022/04/08 03:30:46;;;;;;;9.40;3.00;;;9.30;64.10;;;;;;5018250;28;20526;-70
2022/04/08 03:33:14;;;;;;;8.57;2.43;;;9.30;64.00;;;;;;5022066;28;20518;-70
2022/04/08 03:35:42;;;;;;;7.70;1.93;;;9.30;64.10;;;;;;5021599;28;20955;-70
2022/04/08 03:38:10;;;;;;;8.40;2.60;;;9.30;64.30;;;;;;5021382;28;20449;-70
2022/04/08 03:40:38;;;;;;;10.90;2.17;;;9.30;64.10;;;;;;5017231;28;20483;-70
2022/04/08 03:43:06;;;;;;;9.50;1.93;;;9.30;64.40;;;;;;5015298;28;20460;-70
2022/04/08 03:45:35;;;;;;;10.43;2.50;;;9.40;64.40;;;;;;5017817;28;20515;-70
2022/04/08 03:48:04;;;;;;;7.67;1.97;;;9.30;64.40;;;;;;5020095;28;20471;-69
2022/04/08 03:50:32;;;;;;;9.53;1.97;;;9.30;64.60;;;;;;5017839;28;20499;-69
2022/04/08 03:53:00;;;;;;;10.50;2.30;;;9.30;64.70;;;;;;5020430;28;20441;-70
2022/04/08 03:55:28;;;;;;;10.37;2.13;;;9.30;64.80;;;;;;5017422;28;20475;-70
2022/04/08 03:57:56;;;;;;;9.40;2.33;;;9.30;64.80;;;;;;5038068;28;20467;-71
2022/04/08 04:00:24;;;;;;;9.23;2.37;;;9.30;65.00;;;;;;5015664;28;20479;-71
2022/04/08 04:02:53;;;;;;;9.20;2.60;;;9.30;65.00;;;;;;5017829;28;20479;-70
2022/04/08 04:05:21;;;;;;;10.30;2.20;;;9.20;64.90;;;;;;5016435;28;20519;-70
2022/04/08 04:07:49;;;;;;;11.97;2.67;;;9.20;65.00;;;;;;5016164;28;20456;-70
2022/04/08 04:10:17;;;;;;;9.40;2.37;;;9.20;65.00;;;;;;5018699;28;20472;-71
2022/04/08 04:12:45;;;;;;;12.40;2.20;;;9.20;65.20;;;;;;5012961;28;20451;-71
2022/04/08 04:15:15;;;;;;;12.20;2.30;;;9.10;65.50;;;;;;5013337;28;20472;-71
2022/04/08 04:17:43;;;;;;;10.90;2.20;;;9.10;65.40;;;;;;5018341;28;20514;-70
2022/04/08 04:20:13;;;;;;;13.13;3.00;;;9.20;65.30;;;;;;5018349;28;20468;-70
2022/04/08 04:22:41;;;;;;;7.67;2.10;;;9.20;65.40;;;;;;5015329;28;20462;-70
2022/04/08 04:25:09;;;;;;;9.03;2.30;;;9.20;65.50;;;;;;5016428;28;20464;-70
2022/04/08 04:27:37;;;;;;;11.10;2.37;;;9.20;65.60;;;;;;5017366;28;20465;-71
2022/04/08 04:30:06;;;;;;;8.63;2.37;;;9.20;65.70;;;;;;5015285;28;20486;-71
2022/04/08 04:32:34;;;;;;;9.00;2.27;;;9.20;65.70;;;;;;5017170;28;20495;-69
2022/04/08 04:35:06;;;;;;;9.07;2.40;;;9.20;65.70;;;;;;5019523;28;20479;-69
2022/04/08 04:37:36;;;;;;;10.00;2.50;;;9.20;65.80;;;;;;5015187;28;20500;-71
2022/04/08 04:40:06;;;;;;;7.53;2.67;;;9.30;65.80;;;;;;5021425;28;20487;-69
2022/04/08 04:42:34;;;;;;;10.35;2.78;;;9.30;65.80;;;;;;5018984;28;20845;-71
2022/04/08 04:45:02;;;;;;;13.13;2.13;;;9.30;65.80;;;;;;5017464;28;20202;-71
2022/04/08 04:47:30;;;;;;;12.07;2.80;;;9.40;65.80;;;;;;5022812;28;20492;-71
2022/04/08 04:49:58;;;;;;;13.10;2.53;;;9.30;66.10;;;;;;5017390;28;20503;-71
2022/04/08 04:52:26;;;;;;;10.33;2.53;;;9.30;66.20;;;;;;5016052;28;21206;-71
2022/04/08 04:54:56;;;;;;;10.53;2.50;;;9.20;66.20;;;;;;5017207;28;20471;-71
2022/04/08 04:57:24;;;;;;;11.70;2.37;;;9.20;66.20;;;;;;5014524;28;20451;-70
2022/04/08 04:59:52;;;;;;;8.90;2.53;;;9.30;66.10;;;;;;5012479;28;20492;-70
2022/04/08 05:02:20;;;;;;;14.27;3.07;;;9.30;66.20;;;;;;5012586;28;20484;-70
2022/04/08 05:04:48;;;;;;;16.90;2.90;;;9.30;66.30;;;;;;5009760;28;20476;-71
2022/04/08 05:07:16;;;;;;;17.23;3.03;;;9.30;66.50;;;;;;5011068;28;20461;-70
2022/04/08 05:09:44;;;;;;;12.67;2.70;;;9.30;66.30;;;;;;5015069;28;20511;-70
2022/04/08 05:12:14;;;;;;;12.03;3.37;;;9.30;66.40;;;;;;5013773;28;20480;-70
2022/04/08 05:14:42;;;;;;;15.03;3.30;;;9.30;66.40;;;;;;5021363;28;20486;-70
2022/04/08 05:17:10;;;;;;;14.47;2.70;;;9.40;66.50;;;;;;5019038;28;20479;-71
2022/04/08 05:19:38;;;;;;;8.83;2.40;;;9.40;66.40;;;;;;5024528;28;20495;-71
2022/04/08 05:22:06;;;;;;;12.57;2.70;;;9.40;66.60;;;;;;5025120;28;20467;-71
2022/04/08 05:24:34;;;;;;;14.63;3.03;;;9.40;66.50;;;;;;5020755;28;20456;-71
2022/04/08 05:27:02;;;;;;;13.13;2.93;;;9.50;66.60;;;;;;5018121;28;21259;-70
2022/04/08 05:29:31;;;;;;;11.87;2.83;;;9.50;66.80;;;;;;5017645;28;20475;-70
2022/04/08 05:31:59;;;;;;;12.33;3.13;;;9.40;66.80;;;;;;5015063;28;20564;-70
2022/04/08 05:34:27;;;;;;;16.47;3.60;;;9.50;66.90;;;;;;5015480;28;20450;-71
2022/04/08 05:36:55;;;;;;;10.27;2.70;;;9.50;67.00;;;;;;5015132;28;21028;-71
2022/04/08 05:39:23;;;;;;;8.67;2.70;;;9.50;67.20;;;;;;5014906;28;20526;-72
2022/04/08 05:41:51;;;;;;;10.83;2.13;;;9.80;68.10;;;;;;5017516;28;20472;-72
2022/04/08 05:44:20;;;;;;;10.67;3.43;;;10.20;69.60;;;;;;5020195;28;20517;-71
2022/04/08 05:46:49;;;;;;;10.43;2.43;;;11.20;69.90;;;;;;5013394;28;20487;-70
2022/04/08 05:49:17;;;;;;;8.57;2.37;;;11.80;67.60;;;;;;5015843;28;21056;-70
2022/04/08 05:51:47;;;;;;;6.87;2.40;;;11.90;66.20;;;;;;5019264;28;20519;-71
2022/04/08 05:54:15;;;;;;;11.27;2.90;;;11.70;65.50;;;;;;5018033;28;20469;-70
2022/04/08 05:56:43;;;;;;;14.73;2.60;;;11.50;65.40;;;;;;5015178;28;21016;-70
2022/04/08 05:59:11;;;;;;;9.50;2.70;;;11.30;65.20;;;;;;5014091;28;20477;-70
2022/04/08 06:01:39;;;;;;;10.57;2.50;;;11.00;65.30;;;;;;5014654;28;20473;-70
2022/04/08 06:04:08;;;;;;;13.50;3.07;;;10.80;65.40;;;;;;5009299;28;21229;-70
2022/04/08 06:06:38;;;;;;;11.20;2.67;;;10.70;65.60;;;;;;5011502;28;20477;-70
2022/04/08 06:09:06;;;;;;;7.33;2.67;;;10.60;65.60;;;;;;5011501;28;20475;-70
2022/04/08 06:11:34;;;;;;;12.43;2.63;;;10.40;65.80;;;;;;5011752;28;20476;-70
2022/04/08 06:14:02;;;;;;;13.23;4.33;;;10.40;65.90;;;;;;5013956;28;20474;-71
2022/04/08 06:16:35;;;;;;;12.70;2.40;;;10.30;65.90;;;;;;5018199;28;20501;-72
2022/04/08 06:19:03;;;;;;;9.30;2.60;;;10.20;66.00;;;;;;5019090;28;21052;-70
2022/04/08 06:21:32;;;;;;;11.20;2.77;;;10.10;66.10;;;;;;5020364;28;20464;-70
2022/04/08 06:24:00;;;;;;;12.17;2.80;;;10.10;66.30;;;;;;5018002;28;20455;-71
2022/04/08 06:26:29;;;;;;;9.90;2.57;;;10.10;66.40;;;;;;5018263;28;20546;-71
2022/04/08 06:28:58;;;;;;;10.40;2.27;;;10.10;66.50;;;;;;5032324;28;20485;-71
2022/04/08 06:31:29;;;;;;;11.07;2.20;;;10.00;66.50;;;;;;5014227;28;20491;-70
2022/04/08 06:33:58;;;;;;;12.80;2.97;;;10.10;66.50;;;;;;5017301;28;20459;-70
2022/04/08 06:36:26;;;;;;;11.93;2.40;;;10.00;66.50;;;;;;5018361;28;20535;-70
2022/04/08 06:38:56;;;;;;;11.83;2.90;;;10.10;66.60;;;;;;5015599;28;20503;-70
2022/04/08 06:41:24;;;;;;;13.10;2.60;;;10.00;66.60;;;;;;5023043;28;20859;-71
2022/04/08 06:43:52;;;;;;;12.43;2.23;;;10.00;66.60;;;;;;5019333;28;20457;-71
2022/04/08 06:46:21;;;;;;;9.70;2.73;;;10.00;66.80;;;;;;5018581;28;20467;-71
2022/04/08 06:48:49;;;;;;;16.03;3.17;;;10.00;66.80;;;;;;5039633;28;20475;-72
2022/04/08 06:51:17;;;;;;;11.00;2.20;;;10.00;66.90;;;;;;5017313;28;20468;-70
2022/04/08 06:53:45;;;;;;;12.57;3.30;;;10.00;66.90;;;;;;5018014;28;20566;-71
2022/04/08 06:56:15;;;;;;;14.60;3.03;;;10.00;66.90;;;;;;5023232;28;20459;-71
2022/04/08 06:58:43;;;;;;;12.57;2.93;;;10.00;67.00;;;;;;5020904;28;20453;-72
2022/04/08 07:01:10;;;;;;;14.00;3.00;;;10.00;67.20;;;;;;5016171;28;20896;-71
2022/04/08 07:03:39;;;;;;;10.50;3.00;;;10.00;67.20;;;;;;5016024;28;20682;-71
2022/04/08 07:06:07;;;;;;;16.40;3.60;;;10.10;67.20;;;;;;5023885;28;20465;-71
2022/04/08 07:08:34;;;;;;;8.90;2.50;;;10.00;67.20;;;;;;5024719;28;20456;-71
2022/04/08 07:11:02;;;;;;;16.23;2.90;;;10.00;67.40;;;;;;5017133;28;20848;-71
2022/04/08 07:13:32;;;;;;;17.33;3.73;;;10.00;67.40;;;;;;5018859;28;20484;-71
2022/04/08 07:16:03;;;;;;;11.80;3.50;;;10.10;67.50;;;;;;5021047;28;20500;-71
2022/04/08 07:18:37;;;;;;;11.37;3.43;;;10.10;67.60;;;;;;5030622;28;20459;-71
2022/04/08 07:21:10;;;;;;;10.30;3.13;;;10.20;67.40;;;;;;5018501;28;21036;-70
2022/04/08 07:23:38;;;;;;;19.37;3.40;;;10.20;67.30;;;;;;5012037;28;20460;-70
2022/04/08 07:26:06;;;;;;;20.03;3.73;;;10.20;67.40;;;;;;5019152;28;20461;-70
2022/04/08 07:28:35;;;;;;;12.20;3.13;;;10.20;67.30;;;;;;5017289;28;21013;-70
2022/04/08 07:31:03;;;;;;;9.43;3.00;;;10.20;67.50;;;;;;5015311;28;20495;-71
2022/04/08 07:33:31;;;;;;;11.30;3.30;;;10.20;67.20;;;;;;5016028;28;20484;-70
2022/04/08 07:36:05;;;;;;;10.90;3.23;;;10.20;67.30;;;;;;5015030;28;20453;-70
2022/04/08 07:38:33;;;;;;;8.63;3.23;;;10.20;67.40;;;;;;5013012;28;20475;-70
2022/04/08 07:41:01;;;;;;;8.30;3.23;;;10.20;67.50;;;;;;5015223;28;20449;-70
2022/04/08 07:43:29;;;;;;;8.90;3.30;;;10.20;67.40;;;;;;5013002;28;20484;-70
2022/04/08 07:45:58;;;;;;;14.20;3.50;;;10.10;67.80;;;;;;5024306;28;20549;-70
2022/04/08 07:48:27;;;;;;;10.33;3.80;;;10.10;67.50;;;;;;5014609;28;21017;-70
2022/04/08 07:50:55;;;;;;;12.97;3.30;;;10.20;67.60;;;;;;5012979;28;20456;-69
2022/04/08 07:53:23;;;;;;;8.80;3.53;;;10.20;67.70;;;;;;5014581;28;20494;-70
2022/04/08 07:55:51;;;;;;;14.50;3.87;;;10.20;67.70;;;;;;5014644;28;20460;-70
2022/04/08 07:58:19;;;;;;;14.90;3.70;;;10.30;67.80;;;;;;5017197;28;20515;-71
2022/04/08 08:00:47;;;;;;;13.83;3.43;;;10.40;67.80;;;;;;5015256;28;20486;-71
2022/04/08 08:03:19;;;;;;;15.93;4.37;;;10.40;67.80;;;;;;5021783;28;20440;-71
2022/04/08 08:05:47;;;;;;;11.50;3.70;;;10.50;67.80;;;;;;5022010;28;20455;-71
2022/04/08 08:08:15;;;;;;;13.53;3.87;;;10.50;67.70;;;;;;5017897;28;20456;-71
2022/04/08 08:10:47;;;;;;;12.50;3.93;;;10.60;67.60;;;;;;5014887;28;20476;-71
2022/04/08 08:13:15;;;;;;;9.60;3.30;;;10.50;67.70;;;;;;5018797;28;20992;-71
2022/04/08 08:15:43;;;;;;;11.33;3.40;;;10.50;67.80;;;;;;5016294;28;20468;-71
2022/04/08 08:18:11;;;;;;;15.93;4.80;;;10.60;67.70;;;;;;5021341;28;20455;-71
2022/04/08 08:20:42;;;;;;;15.00;3.77;;;10.60;67.60;;;;;;5018241;28;20480;-71
2022/04/08 08:23:10;;;;;;;14.33;4.33;;;10.70;67.70;;;;;;5012290;28;20460;-71
2022/04/08 08:25:38;;;;;;;8.23;3.30;;;10.70;68.00;;;;;;5017461;28;21015;-71
2022/04/08 08:28:06;;;;;;;15.10;3.80;;;10.80;67.60;;;;;;5020688;28;21114;-71
2022/04/08 08:30:35;;;;;;;16.83;4.40;;;10.80;67.60;;;;;;5017309;28;20471;-71
2022/04/08 08:33:04;;;;;;;14.40;3.90;;;10.80;67.50;;;;;;5019576;28;20472;-71
2022/04/08 08:35:33;;;;;;;10.07;2.80;;;10.80;67.40;;;;;;5020625;28;21175;-71
2022/04/08 08:38:03;;;;;;;11.90;3.20;;;10.80;67.30;;;;;;5009966;28;20456;-71
2022/04/08 08:40:33;;;;;;;11.37;2.80;;;10.80;67.30;;;;;;5017332;28;20484;-71
2022/04/08 08:43:07;;;;;;;26.83;5.10;;;10.90;67.10;;;;;;5019940;28;20459;-71
2022/04/08 08:45:37;;;;;;;11.10;2.50;;;10.80;67.00;;;;;;5014781;28;20580;-71
2022/04/08 08:48:05;;;;;;;11.93;3.07;;;10.80;67.20;;;;;;5015446;28;21241;-71
2022/04/08 08:50:33;;;;;;;7.13;3.30;;;10.80;67.20;;;;;;5016741;28;20484;-71
2022/04/08 08:53:02;;;;;;;8.30;2.67;;;10.90;67.20;;;;;;5014834;28;20478;-71
2022/04/08 08:55:30;;;;;;;8.43;2.70;;;10.90;67.20;;;;;;5013195;28;20448;-71
2022/04/08 08:57:58;;;;;;;10.30;2.83;;;10.90;67.10;;;;;;5021389;28;20460;-71
2022/04/08 09:00:26;;;;;;;15.00;3.23;;;10.90;67.00;;;;;;5011797;28;20484;-71
2022/04/08 09:02:54;;;;;;;9.80;3.00;;;10.90;67.10;;;;;;5016263;28;20457;-71
2022/04/08 09:05:25;;;;;;;14.73;3.00;;;10.90;67.20;;;;;;5018095;28;20937;-71
2022/04/08 09:07:54;;;;;;;10.00;2.77;;;10.90;67.00;;;;;;5015814;28;20452;-71
2022/04/08 09:10:29;;;;;;;18.07;3.90;;;11.00;67.00;;;;;;5011955;28;20481;-71
2022/04/08 09:12:57;;;;;;;8.63;3.00;;;10.90;66.80;;;;;;5028223;28;20468;-71
2022/04/08 09:15:26;;;;;;;13.60;2.90;;;10.90;66.90;;;;;;5017222;28;20468;-71
2022/04/08 09:17:55;;;;;;;10.60;2.83;;;10.90;67.00;;;;;;5018222;28;20475;-71
2022/04/08 09:20:23;;;;;;;7.50;3.00;;;10.90;67.00;;;;;;5027384;28;20491;-71
2022/04/08 09:22:56;;;;;;;10.57;2.87;;;11.00;66.80;;;;;;5016426;28;20453;-71
2022/04/08 09:25:27;;;;;;;12.80;2.80;;;10.90;66.70;;;;;;5013357;28;20453;-71
2022/04/08 09:27:58;;;;;;;9.77;2.50;;;10.90;66.40;;;;;;5019064;28;21049;-71
2022/04/08 09:30:26;;;;;;;12.07;2.87;;;10.80;66.60;;;;;;5017247;28;20464;-71
2022/04/08 09:32:54;;;;;;;13.73;2.83;;;10.70;66.70;;;;;;5017077;28;20468;-71
2022/04/08 09:35:24;;;;;;;11.27;2.40;;;10.70;66.70;;;;;;5015148;28;20472;-71
2022/04/08 09:37:58;;;;;;;12.60;2.70;;;10.70;66.80;;;;;;5012626;28;20511;-71
2022/04/08 09:40:35;;;;;;;15.47;3.20;;;10.60;66.80;;;;;;5011626;28;20501;-71
2022/04/08 09:43:04;;;;;;;8.20;2.30;;;10.50;67.10;;;;;;5013068;28;21051;-71
2022/04/08 09:45:32;;;;;;;10.53;2.47;;;10.50;67.20;;;;;;5016666;28;20514;-71
2022/04/08 09:48:01;;;;;;;7.33;2.80;;;10.50;67.60;;;;;;5017353;28;20452;-71
2022/04/08 09:50:29;;;;;;;8.57;2.60;;;10.40;67.70;;;;;;5023324;28;20483;-71
2022/04/08 09:52:57;;;;;;;6.83;2.70;;;10.40;68.10;;;;;;5021205;28;20541;-71
2022/04/08 09:55:26;;;;;;;13.40;3.20;;;10.30;68.30;;;;;;5016174;28;20480;-71
2022/04/08 09:57:59;;;;;;;10.10;3.00;;;10.30;68.40;;;;;;5020256;28;20961;-71
2022/04/08 10:00:28;;;;;;;10.57;2.43;;;10.20;68.50;;;;;;5027702;28;20463;-71
2022/04/08 10:02:59;;;;;;;7.43;2.63;;;10.10;68.70;;;;;;5024341;28;20854;-71
2022/04/08 10:05:28;;;;;;;14.20;2.70;;;10.10;68.70;;;;;;5024897;28;20463;-72
2022/04/08 10:07:58;;;;;;;7.30;2.23;;;10.10;69.00;;;;;;5021241;28;20548;-71
2022/04/08 10:10:32;;;;;;;8.77;2.80;;;10.10;69.10;;;;;;5019135;28;20491;-71
2022/04/08 10:13:21;;;;;;;9.00;2.60;;;10.00;69.30;;;;;;5020900;28;20443;-71
2022/04/08 10:16:02;;;;;;;6.53;2.63;;;10.10;69.80;;;;;;5019204;28;20483;-69
2022/04/08 10:18:37;;;;;;;7.27;3.17;;;10.10;69.80;;;;;;5018989;28;20957;-69
2022/04/08 10:21:05;;;;;;;8.97;2.33;;;10.00;69.90;;;;;;5035954;28;20471;-69
2022/04/08 10:23:38;;;;;;;9.63;2.30;;;10.00;69.90;;;;;;5016063;28;21034;-69
2022/04/08 10:26:16;;;;;;;13.27;2.20;;;10.10;70.00;;;;;;5020093;28;20443;-69
2022/04/08 10:28:46;;;;;;;7.67;2.30;;;10.00;70.10;;;;;;5009157;28;20459;-69
2022/04/08 10:31:16;;;;;;;8.37;1.90;;;10.00;70.40;;;;;;5016273;28;20537;-69
2022/04/08 10:33:49;;;;;;;6.20;2.07;;;10.00;70.30;;;;;;5023550;28;20496;-69
2022/04/08 10:36:17;;;;;;;9.57;2.00;;;10.00;70.50;;;;;;5023855;28;20460;-69
2022/04/08 10:38:45;;;;;;;5.20;1.80;;;10.00;70.60;;;;;;5014487;28;20468;-70
2022/04/08 10:41:14;;;;;;;5.30;2.20;;;10.00;70.60;;;;;;5019661;28;21192;-69
2022/04/08 10:43:53;;;;;;;12.30;2.90;;;9.90;70.70;;;;;;5017410;28;21108;-69
2022/04/08 10:46:31;;;;;;;8.10;2.00;;;9.90;70.70;;;;;;5015989;28;20494;-69
2022/04/08 10:49:00;;;;;;;8.87;1.77;;;9.90;71.10;;;;;;5023590;28;20577;-69
2022/04/08 10:51:30;;;;;;;7.63;3.00;;;9.90;70.90;;;;;;5019946;28;20863;-69
2022/04/08 10:54:05;;;;;;;8.83;3.30;;;9.90;71.20;;;;;;5018542;28;20464;-69
2022/04/08 10:56:35;;;;;;;6.10;2.23;;;9.90;71.20;;;;;;5018963;28;20459;-68
2022/04/08 10:59:05;;;;;;;6.10;2.10;;;9.80;71.20;;;;;;5015925;28;20829;-68
2022/04/08 11:01:35;;;;;;;4.33;1.53;;;9.80;71.30;;;;;;5015504;28;20473;-69
2022/04/08 11:04:05;;;;;;;9.03;1.90;;;9.80;71.50;;;;;;5022244;28;20471;-69
2022/04/08 11:06:35;;;;;;;5.67;1.77;;;9.80;71.60;;;;;;5019623;28;20965;-68
2022/04/08 11:09:06;;;;;;;5.90;2.17;;;9.80;71.70;;;;;;5017668;28;20483;-68
2022/04/08 11:11:35;;;;;;;5.57;1.77;;;9.80;71.90;;;;;;5019980;28;20457;-68
2022/04/08 11:14:06;;;;;;;10.67;2.20;;;9.80;71.90;;;;;;5024608;28;20461;-68
2022/04/08 11:16:35;;;;;;;6.40;1.70;;;9.80;71.80;;;;;;5017247;28;20460;-68
2022/04/08 11:19:05;;;;;;;8.13;1.97;;;9.80;71.90;;;;;;5023420;28;20964;-67
2022/04/08 11:21:35;;;;;;;6.77;2.00;;;9.80;72.00;;;;;;5022354;28;20472;-68
2022/04/08 11:24:05;;;;;;;6.70;2.10;;;9.80;72.10;;;;;;5021202;28;20456;-68
2022/04/08 11:26:42;;;;;;;7.63;2.33;;;9.80;72.20;;;;;;5018155;28;21160;-68
2022/04/08 11:29:12;;;;;;;9.07;2.37;;;9.80;72.30;;;;;;5019142;28;20479;-68
2022/04/08 11:31:41;;;;;;;6.23;1.60;;;9.70;72.40;;;;;;5018548;28;20472;-68
2022/04/08 11:34:10;;;;;;;6.70;2.10;;;9.70;72.40;;;;;;5021427;28;20460;-68
2022/04/08 11:36:38;;;;;;;8.87;1.53;;;9.70;72.40;;;;;;5019505;28;21137;-68
2022/04/08 11:39:07;;;;;;;6.53;1.70;;;9.80;72.60;;;;;;5021965;28;20499;-68
2022/04/08 11:41:36;;;;;;;4.57;1.60;;;9.80;72.60;;;;;;5019968;28;20456;-68
2022/04/08 11:44:07;;;;;;;8.97;2.40;;;9.70;72.70;;;;;;5022080;28;20543;-68
2022/04/08 11:46:37;;;;;;;7.03;2.00;;;9.80;72.70;;;;;;5016613;28;20570;-68
2022/04/08 11:49:05;;;;;;;5.00;2.00;;;9.70;72.80;;;;;;5031589;28;21134;-68
2022/04/08 11:51:33;;;;;;;6.67;1.47;;;9.80;73.00;;;;;;5017241;28;20969;-68
2022/04/08 11:54:03;;;;;;;4.60;1.37;;;9.70;72.80;;;;;;5016356;28;20475;-68
2022/04/08 11:56:32;;;;;;;8.93;1.77;;;9.70;73.00;;;;;;5015217;28;20571;-68
2022/04/08 11:59:01;;;;;;;3.73;1.30;;;9.70;73.10;;;;;;5017890;28;20537;-68
2022/04/08 12:01:33;;;;;;;3.30;1.27;;;9.70;73.00;;;;;;5018006;28;20497;-68
2022/04/08 12:04:05;;;;;;;5.10;1.37;;;9.70;73.00;;;;;;5019755;28;20464;-68
2022/04/08 12:06:35;;;;;;;6.63;1.60;;;9.60;73.30;;;;;;5025226;28;20448;-68
2022/04/08 12:09:08;;;;;;;3.57;1.00;;;9.60;73.20;;;;;;5019559;28;21128;-69
2022/04/08 12:11:38;;;;;;;3.47;1.20;;;9.50;73.20;;;;;;5018854;28;20452;-69
2022/04/08 12:14:08;;;;;;;3.70;1.23;;;9.50;73.30;;;;;;5011852;28;20510;-68
2022/04/08 12:16:37;;;;;;;3.60;1.27;;;9.50;73.40;;;;;;5010562;28;20543;-69
2022/04/08 12:19:08;;;;;;;3.20;1.07;;;9.50;73.50;;;;;;5016866;28;20949;-69
2022/04/08 12:21:56;;;;;;;2.90;0.90;;;9.50;73.60;;;;;;5012796;28;21046;-69
2022/04/08 12:24:24;;;;;;;3.97;1.50;;;9.60;73.60;;;;;;5015508;28;20591;-69
2022/04/08 12:26:52;;;;;;;4.40;1.20;;;9.60;73.50;;;;;;5014971;28;20460;-69
2022/04/08 12:29:20;;;;;;;3.90;1.20;;;9.60;73.60;;;;;;5011010;28;20480;-69
2022/04/08 12:31:49;;;;;;;3.17;1.23;;;9.50;73.50;;;;;;5011758;28;21055;-69
2022/04/08 12:34:21;;;;;;;5.00;2.07;;;9.50;73.60;;;;;;5015232;28;21163;-69
2022/04/08 12:36:50;;;;;;;8.53;3.47;;;9.50;73.60;;;;;;5017457;28;20483;-69
2022/04/08 12:39:18;;;;;;;4.67;1.90;;;9.50;73.80;;;;;;5018806;28;20503;-69
2022/04/08 12:41:48;;;;;;;3.70;1.70;;;9.50;73.70;;;;;;5015553;28;20455;-69
2022/04/08 12:44:17;;;;;;;3.40;1.30;;;9.40;73.80;;;;;;5013086;28;21289;-69
2022/04/08 12:46:45;;;;;;;3.73;1.13;;;9.40;73.60;;;;;;5012407;28;20476;-69
2022/04/08 12:49:13;;;;;;;3.03;1.10;;;9.40;73.80;;;;;;5010806;28;21093;-69
2022/04/08 12:51:43;;;;;;;2.50;0.70;;;9.30;73.80;;;;;;5011472;28;20551;-69
2022/04/08 12:54:11;;;;;;;2.93;0.90;;;9.30;74.10;;;;;;5012090;28;20463;-69
2022/04/08 12:56:40;;;;;;;3.87;1.10;;;9.30;74.10;;;;;;5014173;28;20507;-69